sensor_id;sensor_type;location;lat;lon;timestamp;pressure;altitude;pressure_sealevel;temperature;humidity
52653;BME280;39353;42.864;12.014;2023-04-07T00:01:24;97569.69;;;22.21;42.41
52653;BME280;39353;42.864;12.014;2023-04-07T00:04:05;97571.64;;;22.19;42.49
52653;BME280;39353;42.864;12.014;2023-04-07T00:06:32;97569.62;;;22.16;42.50
52653;BME280;39353;42.864;12.014;2023-04-07T00:09:14;97571.00;;;22.13;42.53
52653;BME280;39353;42.864;12.014;2023-04-07T00:11:42;97569.76;;;22.10;42.63
52653;BME280;39353;42.864;12.014;2023-04-07T00:14:09;97566.71;;;22.08;42.66
52653;BME280;39353;42.864;12.014;2023-04-07T00:16:50;97565.53;;;22.06;42.66
52653;BME280;39353;42.864;12.014;2023-04-07T00:19:18;97564.76;;;22.04;42.88
52653;BME280;39353;42.864;12.014;2023-04-07T00:21:58;97564.27;;;22.02;42.92
52653;BME280;39353;42.864;12.014;2023-04-07T00:24:26;97562.33;;;21.99;42.83
52653;BME280;39353;42.864;12.014;2023-04-07T00:27:09;97564.09;;;21.97;43.04
52653;BME280;39353;42.864;12.014;2023-04-07T00:29:36;97564.87;;;21.96;42.94
52653;BME280;39353;42.864;12.014;2023-04-07T00:32:03;97560.25;;;21.93;42.99
52653;BME280;39353;42.864;12.014;2023-04-07T00:34:31;97560.25;;;21.89;43.02
52653;BME280;39353;42.864;12.014;2023-04-07T00:37:12;97560.16;;;21.85;42.99
52653;BME280;39353;42.864;12.014;2023-04-07T00:39:53;97562.48;;;21.83;43.14
52653;BME280;39353;42.864;12.014;2023-04-07T00:42:35;97564.15;;;21.81;43.13
52653;BME280;39353;42.864;12.014;2023-04-07T00:45:17;97564.41;;;21.79;43.23
52653;BME280;39353;42.864;12.014;2023-04-07T00:48:03;97560.27;;;21.78;43.28
52653;BME280;39353;42.864;12.014;2023-04-07T00:50:32;97561.60;;;21.76;43.24
52653;BME280;39353;42.864;12.014;2023-04-07T00:53:15;97560.33;;;21.73;43.31
52653;BME280;39353;42.864;12.014;2023-04-07T00:55:43;97560.55;;;21.72;43.56
52653;BME280;39353;42.864;12.014;2023-04-07T00:58:24;97563.52;;;21.71;43.48
52653;BME280;39353;42.864;12.014;2023-04-07T01:01:24;97561.86;;;21.69;43.52
52653;BME280;39353;42.864;12.014;2023-04-07T01:07:34;97560.63;;;21.67;43.41
52653;BME280;39353;42.864;12.014;2023-04-07T01:10:59;97556.33;;;21.65;43.40
52653;BME280;39353;42.864;12.014;2023-04-07T01:13:53;97558.91;;;21.63;43.45
52653;BME280;39353;42.864;12.014;2023-04-07T01:16:50;97555.55;;;21.62;43.47
52653;BME280;39353;42.864;12.014;2023-04-07T01:19:36;97551.27;;;21.60;43.69
52653;BME280;39353;42.864;12.014;2023-04-07T01:22:14;97553.59;;;21.57;43.61
52653;BME280;39353;42.864;12.014;2023-04-07T01:31:09;97552.35;;;21.51;43.80
52653;BME280;39353;42.864;12.014;2023-04-07T01:33:44;97551.23;;;21.50;43.77
52653;BME280;39353;42.864;12.014;2023-04-07T01:36:26;97550.58;;;21.48;43.90
52653;BME280;39353;42.864;12.014;2023-04-07T01:38:57;97550.98;;;21.47;43.92
52653;BME280;39353;42.864;12.014;2023-04-07T01:41:26;97549.21;;;21.47;43.98
52653;BME280;39353;42.864;12.014;2023-04-07T01:43:55;97548.27;;;21.45;43.90
52653;BME280;39353;42.864;12.014;2023-04-07T01:46:24;97547.95;;;21.44;44.10
52653;BME280;39353;42.864;12.014;2023-04-07T01:49:06;97544.19;;;21.42;43.98
52653;BME280;39353;42.864;12.014;2023-04-07T01:51:35;97541.34;;;21.42;44.12
52653;BME280;39353;42.864;12.014;2023-04-07T01:54:04;97540.64;;;21.40;44.09
52653;BME280;39353;42.864;12.014;2023-04-07T01:56:46;97540.27;;;21.39;44.03
52653;BME280;39353;42.864;12.014;2023-04-07T01:59:14;97540.08;;;21.38;44.07
52653;BME280;39353;42.864;12.014;2023-04-07T02:01:56;97541.77;;;21.37;44.21
52653;BME280;39353;42.864;12.014;2023-04-07T02:04:56;97540.37;;;21.35;44.35
52653;BME280;39353;42.864;12.014;2023-04-07T02:07:40;97536.61;;;21.33;44.17
52653;BME280;39353;42.864;12.014;2023-04-07T02:10:14;97537.50;;;21.33;44.04
52653;BME280;39353;42.864;12.014;2023-04-07T02:12:45;97539.83;;;21.34;44.19
52653;BME280;39353;42.864;12.014;2023-04-07T02:15:18;97542.16;;;21.33;44.18
52653;BME280;39353;42.864;12.014;2023-04-07T02:18:02;97541.21;;;21.32;44.20
52653;BME280;39353;42.864;12.014;2023-04-07T02:20:30;97543.06;;;21.31;44.29
52653;BME280;39353;42.864;12.014;2023-04-07T02:23:12;97546.81;;;21.31;44.22
52653;BME280;39353;42.864;12.014;2023-04-07T02:25:56;97542.04;;;21.30;44.34
52653;BME280;39353;42.864;12.014;2023-04-07T02:28:24;97543.60;;;21.29;44.24
52653;BME280;39353;42.864;12.014;2023-04-07T02:30:52;97547.08;;;21.29;44.22
52653;BME280;39353;42.864;12.014;2023-04-07T02:33:19;97545.41;;;21.29;44.27
52653;BME280;39353;42.864;12.014;2023-04-07T02:35:46;97545.16;;;21.28;44.13
52653;BME280;39353;42.864;12.014;2023-04-07T02:38:13;97547.05;;;21.28;44.16
52653;BME280;39353;42.864;12.014;2023-04-07T02:40:40;97543.45;;;21.26;44.39
52653;BME280;39353;42.864;12.014;2023-04-07T02:43:07;97545.57;;;21.24;44.24
52653;BME280;39353;42.864;12.014;2023-04-07T02:45:34;97544.39;;;21.22;44.19
52653;BME280;39353;42.864;12.014;2023-04-07T02:48:03;97545.06;;;21.21;44.26
52653;BME280;39353;42.864;12.014;2023-04-07T02:50:44;97541.14;;;21.20;44.40
52653;BME280;39353;42.864;12.014;2023-04-07T02:53:14;97541.03;;;21.18;44.35
52653;BME280;39353;42.864;12.014;2023-04-07T02:55:41;97544.43;;;21.17;44.37
52653;BME280;39353;42.864;12.014;2023-04-07T02:58:08;97541.94;;;21.16;44.33
52653;BME280;39353;42.864;12.014;2023-04-07T03:00:41;97539.23;;;21.14;44.47
52653;BME280;39353;42.864;12.014;2023-04-07T03:03:24;97540.16;;;21.12;44.52
52653;BME280;39353;42.864;12.014;2023-04-07T03:05:55;97539.84;;;21.11;44.47
52653;BME280;39353;42.864;12.014;2023-04-07T03:08:22;97542.70;;;21.10;44.42
52653;BME280;39353;42.864;12.014;2023-04-07T03:11:05;97541.20;;;21.09;44.53
52653;BME280;39353;42.864;12.014;2023-04-07T03:13:47;97542.19;;;21.08;44.59
52653;BME280;39353;42.864;12.014;2023-04-07T03:16:29;97539.90;;;21.06;44.51
52653;BME280;39353;42.864;12.014;2023-04-07T03:19:06;97544.14;;;21.05;44.68
52653;BME280;39353;42.864;12.014;2023-04-07T03:21:51;97538.17;;;21.04;44.61
52653;BME280;39353;42.864;12.014;2023-04-07T03:24:32;97536.50;;;21.03;44.57
52653;BME280;39353;42.864;12.014;2023-04-07T03:26:59;97534.80;;;21.03;44.56
52653;BME280;39353;42.864;12.014;2023-04-07T03:29:37;97537.14;;;21.03;44.63
52653;BME280;39353;42.864;12.014;2023-04-07T03:32:05;97535.27;;;21.02;44.51
52653;BME280;39353;42.864;12.014;2023-04-07T03:34:32;97526.59;;;20.98;44.78
52653;BME280;39353;42.864;12.014;2023-04-07T03:36:59;97526.09;;;20.98;44.70
52653;BME280;39353;42.864;12.014;2023-04-07T03:39:41;97528.29;;;20.97;44.61
52653;BME280;39353;42.864;12.014;2023-04-07T03:42:22;97522.26;;;20.95;44.81
52653;BME280;39353;42.864;12.014;2023-04-07T03:45:05;97523.77;;;20.95;44.86
52653;BME280;39353;42.864;12.014;2023-04-07T03:47:48;97526.72;;;20.94;44.78
52653;BME280;39353;42.864;12.014;2023-04-07T03:50:17;97522.40;;;20.93;44.81
52653;BME280;39353;42.864;12.014;2023-04-07T03:53:05;97520.56;;;20.92;44.87
52653;BME280;39353;42.864;12.014;2023-04-07T03:55:47;97521.02;;;20.91;44.80
52653;BME280;39353;42.864;12.014;2023-04-07T03:58:35;97521.23;;;20.90;44.79
52653;BME280;39353;42.864;12.014;2023-04-07T04:01:17;97520.73;;;20.90;44.71
52653;BME280;39353;42.864;12.014;2023-04-07T04:03:45;97522.04;;;20.89;44.84
52653;BME280;39353;42.864;12.014;2023-04-07T04:06:16;97520.75;;;20.88;44.84
52653;BME280;39353;42.864;12.014;2023-04-07T04:08:46;97521.12;;;20.87;44.85
52653;BME280;39353;42.864;12.014;2023-04-07T04:11:27;97522.70;;;20.87;45.00
52653;BME280;39353;42.864;12.014;2023-04-07T04:14:01;97525.80;;;20.85;44.96
52653;BME280;39353;42.864;12.014;2023-04-07T04:16:30;97527.61;;;20.84;44.80
52653;BME280;39353;42.864;12.014;2023-04-07T04:19:15;97520.33;;;20.83;44.87
52653;BME280;39353;42.864;12.014;2023-04-07T04:21:43;97519.33;;;20.82;44.98
52653;BME280;39353;42.864;12.014;2023-04-07T04:24:26;97519.41;;;20.81;44.88
52653;BME280;39353;42.864;12.014;2023-04-07T04:27:09;97525.39;;;20.81;44.90
52653;BME280;39353;42.864;12.014;2023-04-07T04:29:50;97525.64;;;20.80;44.99
52653;BME280;39353;42.864;12.014;2023-04-07T04:32:20;97527.17;;;20.79;45.02
52653;BME280;39353;42.864;12.014;2023-04-07T04:34:47;97526.60;;;20.79;45.15
52653;BME280;39353;42.864;12.014;2023-04-07T04:37:29;97525.92;;;20.78;45.13
52653;BME280;39353;42.864;12.014;2023-04-07T04:39:57;97527.73;;;20.77;45.12
52653;BME280;39353;42.864;12.014;2023-04-07T04:42:24;97531.22;;;20.77;45.04
52653;BME280;39353;42.864;12.014;2023-04-07T04:44:54;97532.64;;;20.76;45.01
52653;BME280;39353;42.864;12.014;2023-04-07T04:47:35;97531.46;;;20.75;45.09
52653;BME280;39353;42.864;12.014;2023-04-07T04:50:06;97531.38;;;20.74;45.08
52653;BME280;39353;42.864;12.014;2023-04-07T04:52:48;97531.77;;;20.74;44.88
52653;BME280;39353;42.864;12.014;2023-04-07T04:55:20;97531.86;;;20.74;45.21
52653;BME280;39353;42.864;12.014;2023-04-07T05:01:05;97536.23;;;20.72;45.05
52653;BME280;39353;42.864;12.014;2023-04-07T05:04:17;97536.02;;;20.72;45.05
52653;BME280;39353;42.864;12.014;2023-04-07T05:07:04;97539.01;;;20.72;45.07
52653;BME280;39353;42.864;12.014;2023-04-07T05:09:45;97536.88;;;20.70;45.17
52653;BME280;39353;42.864;12.014;2023-04-07T05:12:27;97539.69;;;20.70;45.10
52653;BME280;39353;42.864;12.014;2023-04-07T05:15:12;97539.02;;;20.69;45.19
52653;BME280;39353;42.864;12.014;2023-04-07T05:17:55;97533.61;;;20.69;45.03
52653;BME280;39353;42.864;12.014;2023-04-07T05:20:29;97534.20;;;20.68;45.12
52653;BME280;39353;42.864;12.014;2023-04-07T05:23:11;97536.89;;;20.69;45.18
52653;BME280;39353;42.864;12.014;2023-04-07T05:25:52;97540.07;;;20.68;45.14
52653;BME280;39353;42.864;12.014;2023-04-07T05:28:34;97540.39;;;20.67;45.16
52653;BME280;39353;42.864;12.014;2023-04-07T05:31:04;97549.86;;;20.67;45.11
52653;BME280;39353;42.864;12.014;2023-04-07T05:33:47;97552.21;;;20.67;45.16
52653;BME280;39353;42.864;12.014;2023-04-07T05:36:15;97552.16;;;20.67;45.09
52653;BME280;39353;42.864;12.014;2023-04-07T05:38:56;97555.97;;;20.67;45.29
52653;BME280;39353;42.864;12.014;2023-04-07T05:41:37;97557.70;;;20.66;45.21
52653;BME280;39353;42.864;12.014;2023-04-07T05:44:19;97557.76;;;20.66;45.31
52653;BME280;39353;42.864;12.014;2023-04-07T05:46:47;97557.92;;;20.66;45.18
52653;BME280;39353;42.864;12.014;2023-04-07T05:49:27;97558.96;;;20.66;45.24
52653;BME280;39353;42.864;12.014;2023-04-07T05:52:02;97556.98;;;20.66;45.19
52653;BME280;39353;42.864;12.014;2023-04-07T05:54:32;97559.30;;;20.67;45.29
52653;BME280;39353;42.864;12.014;2023-04-07T05:57:01;97560.43;;;20.66;45.29
52653;BME280;39353;42.864;12.014;2023-04-07T05:59:30;97560.81;;;20.66;45.21
52653;BME280;39353;42.864;12.014;2023-04-07T06:01:57;97561.44;;;20.66;45.35
52653;BME280;39353;42.864;12.014;2023-04-07T06:04:38;97562.36;;;20.67;45.31
52653;BME280;39353;42.864;12.014;2023-04-07T06:07:20;97562.70;;;20.67;45.25
52653;BME280;39353;42.864;12.014;2023-04-07T06:09:48;97567.35;;;20.68;45.34
52653;BME280;39353;42.864;12.014;2023-04-07T06:12:30;97567.84;;;20.68;45.43
52653;BME280;39353;42.864;12.014;2023-04-07T06:14:57;97575.52;;;20.70;45.29
52653;BME280;39353;42.864;12.014;2023-04-07T06:17:38;97573.66;;;20.70;45.32
52653;BME280;39353;42.864;12.014;2023-04-07T06:20:19;97579.45;;;20.70;45.48
52653;BME280;39353;42.864;12.014;2023-04-07T06:22:50;97577.05;;;20.70;45.43
52653;BME280;39353;42.864;12.014;2023-04-07T06:25:18;97576.97;;;20.71;45.48
52653;BME280;39353;42.864;12.014;2023-04-07T06:27:45;97576.79;;;20.72;45.34
52653;BME280;39353;42.864;12.014;2023-04-07T06:30:27;97578.42;;;20.73;45.41
52653;BME280;39353;42.864;12.014;2023-04-07T06:32:55;97578.36;;;20.75;45.31
52653;BME280;39353;42.864;12.014;2023-04-07T06:35:38;97579.96;;;20.76;45.17
52653;BME280;39353;42.864;12.014;2023-04-07T06:38:07;97580.09;;;20.78;45.14
52653;BME280;39353;42.864;12.014;2023-04-07T06:40:33;97579.31;;;20.80;45.20
52653;BME280;39353;42.864;12.014;2023-04-07T06:43:15;97578.23;;;20.81;45.25
52653;BME280;39353;42.864;12.014;2023-04-07T06:45:53;97582.25;;;20.83;45.59
52653;BME280;39353;42.864;12.014;2023-04-07T06:48:36;97581.04;;;20.88;45.82
52653;BME280;39353;42.864;12.014;2023-04-07T06:51:18;97580.61;;;20.90;44.99
52653;BME280;39353;42.864;12.014;2023-04-07T06:53:59;97578.80;;;20.89;44.84
52653;BME280;39353;42.864;12.014;2023-04-07T06:56:27;97580.26;;;20.91;44.99
52653;BME280;39353;42.864;12.014;2023-04-07T06:58:55;97578.65;;;20.92;45.05
52653;BME280;39353;42.864;12.014;2023-04-07T07:01:37;97577.43;;;20.95;44.94
52653;BME280;39353;42.864;12.014;2023-04-07T07:04:04;97581.41;;;20.98;45.11
52653;BME280;39353;42.864;12.014;2023-04-07T07:06:46;97582.65;;;20.99;45.06
52653;BME280;39353;42.864;12.014;2023-04-07T07:09:27;97578.79;;;21.00;44.96
52653;BME280;39353;42.864;12.014;2023-04-07T07:12:09;97584.16;;;21.01;45.10
52653;BME280;39353;42.864;12.014;2023-04-07T07:14:36;97588.73;;;21.02;45.08
52653;BME280;39353;42.864;12.014;2023-04-07T07:17:03;97590.58;;;21.04;45.22
52653;BME280;39353;42.864;12.014;2023-04-07T07:19:30;97587.30;;;21.07;45.35
52653;BME280;39353;42.864;12.014;2023-04-07T07:22:00;97592.73;;;21.11;45.34
52653;BME280;39353;42.864;12.014;2023-04-07T07:24:28;97592.56;;;21.15;45.62
52653;BME280;39353;42.864;12.014;2023-04-07T07:27:10;97595.79;;;21.19;45.83
52653;BME280;39353;42.864;12.014;2023-04-07T07:29:51;97598.48;;;21.24;46.20
52653;BME280;39353;42.864;12.014;2023-04-07T07:32:24;97588.92;;;21.30;47.17
52653;BME280;39353;42.864;12.014;2023-04-07T07:34:51;97588.19;;;21.35;47.56
52653;BME280;39353;42.864;12.014;2023-04-07T07:37:19;97587.08;;;21.40;48.71
52653;BME280;39353;42.864;12.014;2023-04-07T07:40:00;97584.54;;;21.44;49.37
52653;BME280;39353;42.864;12.014;2023-04-07T07:42:41;97582.48;;;21.46;49.58
52653;BME280;39353;42.864;12.014;2023-04-07T07:45:23;97581.21;;;21.47;49.80
52653;BME280;39353;42.864;12.014;2023-04-07T07:48:04;97577.58;;;21.45;49.55
52653;BME280;39353;42.864;12.014;2023-04-07T07:50:45;97579.48;;;21.45;49.29
52653;BME280;39353;42.864;12.014;2023-04-07T07:53:14;97580.77;;;21.46;49.99
52653;BME280;39353;42.864;12.014;2023-04-07T07:55:56;97577.91;;;21.48;50.17
52653;BME280;39353;42.864;12.014;2023-04-07T07:58:23;97576.73;;;21.50;50.73
52653;BME280;39353;42.864;12.014;2023-04-07T08:00:50;97575.02;;;21.51;50.72
52653;BME280;39353;42.864;12.014;2023-04-07T08:03:32;97575.39;;;21.53;51.04
52653;BME280;39353;42.864;12.014;2023-04-07T08:06:13;97573.05;;;21.53;51.25
52653;BME280;39353;42.864;12.014;2023-04-07T08:08:54;97572.55;;;21.52;52.03
52653;BME280;39353;42.864;12.014;2023-04-07T08:11:21;97571.80;;;21.52;51.52
52653;BME280;39353;42.864;12.014;2023-04-07T08:13:51;97572.03;;;21.53;51.24
52653;BME280;39353;42.864;12.014;2023-04-07T08:16:20;97572.74;;;21.53;50.87
52653;BME280;39353;42.864;12.014;2023-04-07T08:18:48;97567.23;;;21.54;50.75
52653;BME280;39353;42.864;12.014;2023-04-07T08:21:15;97568.09;;;21.53;50.44
52653;BME280;39353;42.864;12.014;2023-04-07T08:23:56;97564.09;;;21.53;50.42
52653;BME280;39353;42.864;12.014;2023-04-07T08:26:24;97563.59;;;21.53;50.26
52653;BME280;39353;42.864;12.014;2023-04-07T08:28:52;97559.49;;;21.52;49.83
52653;BME280;39353;42.864;12.014;2023-04-07T08:31:19;97559.05;;;21.50;49.83
52653;BME280;39353;42.864;12.014;2023-04-07T08:33:47;97557.47;;;21.48;49.73
52653;BME280;39353;42.864;12.014;2023-04-07T08:36:20;97552.63;;;21.49;49.96
52653;BME280;39353;42.864;12.014;2023-04-07T08:39:00;97552.41;;;21.51;50.20
52653;BME280;39353;42.864;12.014;2023-04-07T08:41:46;97549.25;;;21.55;50.60
52653;BME280;39353;42.864;12.014;2023-04-07T08:44:28;97553.43;;;21.58;51.33
52653;BME280;39353;42.864;12.014;2023-04-07T08:47:08;97551.52;;;21.61;51.29
52653;BME280;39353;42.864;12.014;2023-04-07T08:49:51;97549.47;;;21.62;51.76
52653;BME280;39353;42.864;12.014;2023-04-07T08:52:22;97545.73;;;21.63;52.00
52653;BME280;39353;42.864;12.014;2023-04-07T08:55:09;97541.55;;;21.64;52.11
52653;BME280;39353;42.864;12.014;2023-04-07T08:57:36;97540.42;;;21.64;52.27
52653;BME280;39353;42.864;12.014;2023-04-07T09:00:19;97534.88;;;21.64;51.84
52653;BME280;39353;42.864;12.014;2023-04-07T09:02:47;97532.08;;;21.62;51.78
52653;BME280;39353;42.864;12.014;2023-04-07T09:05:29;97527.32;;;21.52;44.13
52653;BME280;39353;42.864;12.014;2023-04-07T09:08:10;97529.77;;;21.40;45.73
52653;BME280;39353;42.864;12.014;2023-04-07T09:10:53;97530.45;;;21.36;44.88
52653;BME280;39353;42.864;12.014;2023-04-07T09:13:20;97529.80;;;21.34;46.86
52653;BME280;39353;42.864;12.014;2023-04-07T09:15:48;97522.52;;;21.35;46.99
52653;BME280;39353;42.864;12.014;2023-04-07T09:18:15;97521.34;;;21.36;47.20
52653;BME280;39353;42.864;12.014;2023-04-07T09:20:59;97517.48;;;21.38;47.80
52653;BME280;39353;42.864;12.014;2023-04-07T09:23:41;97509.77;;;21.30;38.70
52653;BME280;39353;42.864;12.014;2023-04-07T09:29:02;97509.14;;;21.08;38.83
52653;BME280;39353;42.864;12.014;2023-04-07T09:31:45;97504.05;;;21.10;40.81
52653;BME280;39353;42.864;12.014;2023-04-07T09:34:36;97500.59;;;21.12;41.65
52653;BME280;39353;42.864;12.014;2023-04-07T09:37:05;97499.70;;;21.13;42.26
52653;BME280;39353;42.864;12.014;2023-04-07T09:39:48;97499.23;;;21.14;42.78
52653;BME280;39353;42.864;12.014;2023-04-07T09:42:19;97496.02;;;21.15;43.01
52653;BME280;39353;42.864;12.014;2023-04-07T09:45:24;97489.90;;;21.14;43.42
52653;BME280;39353;42.864;12.014;2023-04-07T09:51:15;97487.98;;;21.14;43.93
52653;BME280;39353;42.864;12.014;2023-04-07T09:56:31;97487.77;;;21.13;43.95
52653;BME280;39353;42.864;12.014;2023-04-07T09:59:00;97490.87;;;21.10;43.42
52653;BME280;39353;42.864;12.014;2023-04-07T10:04:53;97491.16;;;21.06;43.44
52653;BME280;39353;42.864;12.014;2023-04-07T10:07:39;97488.61;;;21.06;43.49
52653;BME280;39353;42.864;12.014;2023-04-07T10:10:43;97490.20;;;21.04;43.40
52653;BME280;39353;42.864;12.014;2023-04-07T10:13:13;97483.93;;;21.02;43.32
52653;BME280;39353;42.864;12.014;2023-04-07T10:16:18;97477.98;;;21.00;43.60
52653;BME280;39353;42.864;12.014;2023-04-07T10:19:05;97476.32;;;20.99;43.65
52653;BME280;39353;42.864;12.014;2023-04-07T10:21:50;97469.41;;;20.98;43.55
52653;BME280;39353;42.864;12.014;2023-04-07T10:24:45;97463.75;;;20.96;43.61
52653;BME280;39353;42.864;12.014;2023-04-07T10:27:39;97456.52;;;20.95;43.65
52653;BME280;39353;42.864;12.014;2023-04-07T10:30:47;97451.45;;;20.92;43.55
52653;BME280;39353;42.864;12.014;2023-04-07T10:36:34;97443.81;;;20.90;43.74
52653;BME280;39353;42.864;12.014;2023-04-07T10:39:21;97441.94;;;20.89;43.75
52653;BME280;39353;42.864;12.014;2023-04-07T10:41:49;97436.29;;;20.88;43.44
52653;BME280;39353;42.864;12.014;2023-04-07T10:47:06;97440.98;;;20.94;43.21
52653;BME280;39353;42.864;12.014;2023-04-07T10:49:35;97441.38;;;21.02;42.92
52653;BME280;39353;42.864;12.014;2023-04-07T10:55:32;97439.66;;;21.24;43.16
52653;BME280;39353;42.864;12.014;2023-04-07T11:03:56;97440.27;;;21.63;45.01
52653;BME280;39353;42.864;12.014;2023-04-07T11:06:27;97436.94;;;21.65;44.10
52653;BME280;39353;42.864;12.014;2023-04-07T11:09:18;97432.55;;;21.72;44.71
52653;BME280;39353;42.864;12.014;2023-04-07T11:11:45;97429.77;;;21.79;44.90
52653;BME280;39353;42.864;12.014;2023-04-07T11:14:27;97429.52;;;21.81;45.11
52653;BME280;39353;42.864;12.014;2023-04-07T11:16:56;97426.31;;;21.82;44.99
52653;BME280;39353;42.864;12.014;2023-04-07T11:19:57;97424.03;;;21.83;44.47
52653;BME280;39353;42.864;12.014;2023-04-07T11:22:24;97419.88;;;21.83;44.40
52653;BME280;39353;42.864;12.014;2023-04-07T11:24:53;97420.56;;;21.84;44.51
52653;BME280;39353;42.864;12.014;2023-04-07T11:27:20;97422.93;;;21.88;44.87
52653;BME280;39353;42.864;12.014;2023-04-07T11:30:07;97408.94;;;21.94;45.04
52653;BME280;39353;42.864;12.014;2023-04-07T11:32:50;97403.46;;;21.98;45.23
52653;BME280;39353;42.864;12.014;2023-04-07T11:35:47;97403.40;;;22.00;45.61
52653;BME280;39353;42.864;12.014;2023-04-07T11:38:35;97396.80;;;22.00;45.56
52653;BME280;39353;42.864;12.014;2023-04-07T11:41:16;97400.89;;;22.00;45.50
52653;BME280;39353;42.864;12.014;2023-04-07T11:44:10;97401.20;;;22.01;45.70
52653;BME280;39353;42.864;12.014;2023-04-07T11:46:55;97397.27;;;22.03;46.12
52653;BME280;39353;42.864;12.014;2023-04-07T11:52:12;97394.75;;;22.06;46.42
52653;BME280;39353;42.864;12.014;2023-04-07T11:54:54;97392.34;;;22.06;46.41
52653;BME280;39353;42.864;12.014;2023-04-07T11:58:06;97382.89;;;22.08;46.07
52653;BME280;39353;42.864;12.014;2023-04-07T12:01:05;97387.34;;;22.11;45.78
52653;BME280;39353;42.864;12.014;2023-04-07T12:03:36;97389.80;;;22.14;45.72
52653;BME280;39353;42.864;12.014;2023-04-07T12:06:40;97382.93;;;22.17;45.75
52653;BME280;39353;42.864;12.014;2023-04-07T12:09:30;97375.57;;;22.20;45.78
52653;BME280;39353;42.864;12.014;2023-04-07T12:12:28;97373.71;;;22.23;46.04
52653;BME280;39353;42.864;12.014;2023-04-07T12:14:56;97374.38;;;22.23;46.05
52653;BME280;39353;42.864;12.014;2023-04-07T12:17:25;97368.65;;;22.24;46.09
52653;BME280;39353;42.864;12.014;2023-04-07T12:20:46;97368.77;;;22.23;45.90
52653;BME280;39353;42.864;12.014;2023-04-07T12:23:40;97361.79;;;22.22;45.52
52653;BME280;39353;42.864;12.014;2023-04-07T12:26:07;97357.91;;;22.22;45.29
52653;BME280;39353;42.864;12.014;2023-04-07T12:28:37;97354.28;;;22.24;44.95
52653;BME280;39353;42.864;12.014;2023-04-07T12:31:06;97350.98;;;22.26;44.81
52653;BME280;39353;42.864;12.014;2023-04-07T12:36:53;97345.07;;;22.30;44.29
52653;BME280;39353;42.864;12.014;2023-04-07T12:39:23;97341.98;;;22.31;44.20
52653;BME280;39353;42.864;12.014;2023-04-07T12:41:50;97348.07;;;22.32;44.02
52653;BME280;39353;42.864;12.014;2023-04-07T12:44:18;97345.35;;;22.30;43.84
52653;BME280;39353;42.864;12.014;2023-04-07T12:46:46;97348.02;;;22.32;43.97
52653;BME280;39353;42.864;12.014;2023-04-07T12:49:29;97339.53;;;22.36;44.24
52653;BME280;39353;42.864;12.014;2023-04-07T12:52:21;97335.56;;;22.42;44.61
52653;BME280;39353;42.864;12.014;2023-04-07T12:55:03;97332.98;;;22.46;44.93
52653;BME280;39353;42.864;12.014;2023-04-07T12:57:33;97331.65;;;22.50;44.97
52653;BME280;39353;42.864;12.014;2023-04-07T13:00:03;97329.42;;;22.54;44.77
52653;BME280;39353;42.864;12.014;2023-04-07T13:02:31;97327.77;;;22.56;44.78
52653;BME280;39353;42.864;12.014;2023-04-07T13:04:59;97331.77;;;22.59;44.72
52653;BME280;39353;42.864;12.014;2023-04-07T13:07:40;97324.27;;;22.61;44.60
52653;BME280;39353;42.864;12.014;2023-04-07T13:10:22;97323.82;;;22.63;44.51
52653;BME280;39353;42.864;12.014;2023-04-07T13:13:04;97318.95;;;22.62;44.29
52653;BME280;39353;42.864;12.014;2023-04-07T13:15:31;97311.60;;;22.64;44.17
52653;BME280;39353;42.864;12.014;2023-04-07T13:17:58;97314.66;;;22.65;43.90
52653;BME280;39353;42.864;12.014;2023-04-07T13:23:38;97309.45;;;22.69;43.30
52653;BME280;39353;42.864;12.014;2023-04-07T13:26:19;97308.52;;;22.74;43.24
52653;BME280;39353;42.864;12.014;2023-04-07T13:28:47;97307.83;;;22.79;42.97
52653;BME280;39353;42.864;12.014;2023-04-07T13:31:28;97305.06;;;22.80;42.67
52653;BME280;39353;42.864;12.014;2023-04-07T13:34:14;97305.63;;;22.81;42.46
52653;BME280;39353;42.864;12.014;2023-04-07T13:36:42;97304.55;;;22.82;42.36
52653;BME280;39353;42.864;12.014;2023-04-07T13:42:59;97293.48;;;22.86;42.08
52653;BME280;39353;42.864;12.014;2023-04-07T13:45:44;97294.25;;;22.90;42.36
52653;BME280;39353;42.864;12.014;2023-04-07T13:48:26;97293.23;;;22.94;42.62
52653;BME280;39353;42.864;12.014;2023-04-07T13:50:54;97291.71;;;22.97;42.71
52653;BME280;39353;42.864;12.014;2023-04-07T13:53:21;97294.73;;;23.00;43.00
52653;BME280;39353;42.864;12.014;2023-04-07T13:56:03;97287.98;;;23.03;43.15
52653;BME280;39353;42.864;12.014;2023-04-07T13:58:45;97289.64;;;23.04;43.00
52653;BME280;39353;42.864;12.014;2023-04-07T14:01:27;97284.76;;;23.05;43.02
52653;BME280;39353;42.864;12.014;2023-04-07T14:04:36;97274.11;;;23.05;43.08
52653;BME280;39353;42.864;12.014;2023-04-07T14:07:17;97280.27;;;23.03;42.67
52653;BME280;39353;42.864;12.014;2023-04-07T14:09:59;97274.10;;;23.04;42.61
52653;BME280;39353;42.864;12.014;2023-04-07T14:13:03;97274.17;;;23.05;42.70
52653;BME280;39353;42.864;12.014;2023-04-07T14:16:05;97271.66;;;23.05;42.90
52653;BME280;39353;42.864;12.014;2023-04-07T14:18:53;97273.45;;;23.06;42.72
52653;BME280;39353;42.864;12.014;2023-04-07T14:21:50;97281.61;;;23.05;42.85
52653;BME280;39353;42.864;12.014;2023-04-07T14:24:31;97278.52;;;23.06;42.93
52653;BME280;39353;42.864;12.014;2023-04-07T14:26:58;97277.61;;;23.07;42.82
52653;BME280;39353;42.864;12.014;2023-04-07T14:29:33;97279.44;;;23.08;42.80
52653;BME280;39353;42.864;12.014;2023-04-07T14:32:14;97279.14;;;23.13;42.88
52653;BME280;39353;42.864;12.014;2023-04-07T14:34:55;97277.98;;;23.15;42.93
52653;BME280;39353;42.864;12.014;2023-04-07T14:37:24;97274.40;;;23.17;42.93